Time,TemperatureF,DewpointF,PressureIn,WindDirection,WindDirectionDegrees,WindSpeedMPH,WindSpeedGustMPH,Humidity,HourlyPrecipIn,Conditions,Clouds,dailyrainin,SoftwareType,DateUTC
2013-09-22 00:01:00,69.7,67.6,29.73,SW,221,5.0,8.0,93,0.00,,,0.00,Wunderground v.1.15,2013-09-22 04:01:00,
2013-09-22 00:02:00,69.7,67.6,29.72,SW,229,5.0,8.0,93,0.00,,,0.00,Wunderground v.1.15,2013-09-22 04:02:00,
2013-09-22 00:03:00,69.6,67.5,29.72,SW,218,5.0,8.0,93,0.00,,,0.00,Wunderground v.1.15,2013-09-22 04:03:00,
2013-09-22 00:06:00,69.6,67.5,29.72,SSE,161,5.0,8.0,93,0.00,,,0.00,Wunderground v.1.15,2013-09-22 04:06:00,
2013-09-22 00:07:00,69.6,67.5,29.72,SSW,207,5.0,8.0,93,0.00,,,0.00,Wunderground v.1.15,2013-09-22 04:07:00,
2013-09-22 00:13:00,69.6,67.2,29.72,WSW,252,5.0,7.0,92,0.00,,,0.00,Wunderground v.1.15,2013-09-22 04:13:00,
2013-09-22 00:18:00,69.7,67.3,29.72,SW,222,5.0,8.0,92,0.00,,,0.00,Wunderground v.1.15,2013-09-22 04:18:00,
2013-09-22 00:23:00,69.7,67.0,29.71,WSW,242,4.0,6.0,91,0.00,,,0.00,Wunderground v.1.15,2013-09-22 04:23:00,
2013-09-22 00:29:00,69.8,67.1,29.71,WSW,250,5.0,9.0,91,0.00,,,0.00,Wunderground v.1.15,2013-09-22 04:29:00,
2013-09-22 00:35:00,69.9,67.2,29.71,SSW,210,5.0,8.0,91,0.00,,,0.00,Wunderground v.1.15,2013-09-22 04:35:00,
2013-09-22 00:41:00,70.0,67.3,29.70,SSW,203,6.0,8.0,91,0.00,,,0.00,Wunderground v.1.15,2013-09-22 04:41:00,
2013-09-22 00:47:00,70.0,67.3,29.70,SSE,165,5.0,8.0,91,0.00,,,0.00,Wunderground v.1.15,2013-09-22 04:47:00,
2013-09-22 00:53:00,70.0,66.9,29.70,WNW,300,6.0,14.0,90,0.00,,,0.00,Wunderground v.1.15,2013-09-22 04:53:00,
2013-09-22 00:59:00,69.8,66.7,29.70,SSW,201,7.0,14.0,90,0.00,,,0.00,Wunderground v.1.15,2013-09-22 04:59:00,
2013-09-22 01:04:00,69.5,66.8,29.70,South,179,6.0,7.0,91,0.00,,,0.00,Wunderground v.1.15,2013-09-22 05:04:00,
2013-09-22 01:09:00,69.3,66.9,29.70,SSW,208,5.0,9.0,92,0.00,,,0.00,Wunderground v.1.15,2013-09-22 05:09:00,
2013-09-22 01:14:00,69.2,66.8,29.70,West,278,5.0,7.0,92,0.00,,,0.00,Wunderground v.1.15,2013-09-22 05:14:00,
2013-09-22 01:20:00,69.1,67.0,29.69,SW,229,5.0,5.0,93,0.00,,,0.00,Wunderground v.1.15,2013-09-22 05:20:00,
2013-09-22 01:26:00,68.9,66.8,29.69,South,190,4.0,6.0,93,0.00,,,0.00,Wunderground v.1.15,2013-09-22 05:26:00,
2013-09-22 01:32:00,68.9,67.1,29.69,West,271,4.0,6.0,94,0.00,,,0.00,Wunderground v.1.15,2013-09-22 05:32:00,
2013-09-22 01:38:00,69.0,67.2,29.68,SW,232,4.0,7.0,94,0.00,,,0.00,Wunderground v.1.15,2013-09-22 05:38:00,
2013-09-22 01:44:00,69.1,67.3,29.68,WSW,242,4.0,7.0,94,0.00,,,0.00,Wunderground v.1.15,2013-09-22 05:44:00,
2013-09-22 01:50:00,69.3,67.5,29.67,SSE,149,5.0,5.0,94,0.00,,,0.00,Wunderground v.1.15,2013-09-22 05:50:00,
2013-09-22 01:56:00,69.3,67.5,29.67,WSW,238,5.0,6.0,94,0.00,,,0.00,Wunderground v.1.15,2013-09-22 05:56:00,
2013-09-22 02:02:00,69.2,67.4,29.67,SW,219,4.0,6.0,94,0.00,,,0.00,Wunderground v.1.15,2013-09-22 06:02:00,
2013-09-22 02:07:00,69.2,67.7,29.67,SW,214,4.0,7.0,95,0.00,,,0.00,Wunderground v.1.15,2013-09-22 06:07:00,
2013-09-22 02:12:00,69.3,67.8,29.66,SSE,163,5.0,6.0,95,0.00,,,0.00,Wunderground v.1.15,2013-09-22 06:12:00,
2013-09-22 02:17:00,69.3,67.8,29.66,West,264,5.0,6.0,95,0.00,,,0.00,Wunderground v.1.15,2013-09-22 06:17:00,
2013-09-22 02:22:00,69.4,67.9,29.66,SW,218,5.0,7.0,95,0.00,,,0.00,Wunderground v.1.15,2013-09-22 06:22:00,
2013-09-22 02:27:00,69.5,68.0,29.66,SSW,208,5.0,7.0,95,2.09,,,0.04,Wunderground v.1.15,2013-09-22 06:27:00,
2013-09-22 02:33:00,69.4,67.9,29.66,SSW,194,5.0,9.0,95,0.16,,,0.07,Wunderground v.1.15,2013-09-22 06:33:00,
2013-09-22 02:39:00,69.3,68.1,29.66,SW,233,5.0,9.0,96,0.08,,,0.07,Wunderground v.1.15,2013-09-22 06:39:00,
2013-09-22 02:44:00,69.3,68.1,29.65,WSW,249,5.0,8.0,96,0.05,,,0.07,Wunderground v.1.15,2013-09-22 06:44:00,
2013-09-22 02:50:00,69.3,68.1,29.65,SSW,198,5.0,5.0,96,0.00,,,0.07,Wunderground v.1.15,2013-09-22 06:50:00,
2013-09-22 02:56:00,69.4,68.2,29.65,SSW,194,4.0,9.0,96,0.00,,,0.07,Wunderground v.1.15,2013-09-22 06:56:00,
2013-09-22 03:02:00,69.4,68.2,29.65,South,176,5.0,6.0,96,0.00,,,0.07,Wunderground v.1.15,2013-09-22 07:02:00,
2013-09-22 03:08:00,69.4,68.2,29.65,WSW,239,5.0,10.0,96,0.00,,,0.07,Wunderground v.1.15,2013-09-22 07:08:00,
2013-09-22 03:14:00,69.4,68.2,29.64,SSW,197,5.0,8.0,96,0.00,,,0.07,Wunderground v.1.15,2013-09-22 07:14:00,
2013-09-22 03:20:00,69.5,68.3,29.64,WSW,238,5.0,11.0,96,0.00,,,0.07,Wunderground v.1.15,2013-09-22 07:20:00,
2013-09-22 03:26:00,69.5,68.3,29.64,SSW,195,5.0,11.0,96,0.00,,,0.07,Wunderground v.1.15,2013-09-22 07:26:00,
2013-09-22 03:32:00,69.5,68.3,29.64,SW,215,4.0,8.0,96,0.00,,,0.07,Wunderground v.1.15,2013-09-22 07:32:00,
2013-09-22 03:38:00,69.5,68.3,29.64,SSW,200,5.0,8.0,96,0.00,,,0.07,Wunderground v.1.15,2013-09-22 07:38:00,
2013-09-22 03:44:00,69.6,68.4,29.63,SSW,200,5.0,6.0,96,0.00,,,0.07,Wunderground v.1.15,2013-09-22 07:44:00,
2013-09-22 03:50:00,69.6,68.1,29.63,WSW,246,5.0,5.0,95,0.00,,,0.07,Wunderground v.1.15,2013-09-22 07:50:00,
2013-09-22 03:56:00,69.6,68.1,29.63,WSW,243,5.0,8.0,95,0.00,,,0.07,Wunderground v.1.15,2013-09-22 07:56:00,
2013-09-22 04:02:00,69.6,68.1,29.63,WSW,238,5.0,6.0,95,0.00,,,0.07,Wunderground v.1.15,2013-09-22 08:02:00,
2013-09-22 04:08:00,69.5,68.0,29.63,SW,229,4.0,6.0,95,0.00,,,0.07,Wunderground v.1.15,2013-09-22 08:08:00,
2013-09-22 04:14:00,69.6,68.1,29.62,SW,235,4.0,11.0,95,0.00,,,0.07,Wunderground v.1.15,2013-09-22 08:14:00,
2013-09-22 04:19:00,69.6,68.1,29.63,West,273,4.0,11.0,95,0.00,,,0.07,Wunderground v.1.15,2013-09-22 08:19:00,
2013-09-22 04:25:00,69.6,68.1,29.63,WSW,253,4.0,7.0,95,0.00,,,0.07,Wunderground v.1.15,2013-09-22 08:25:00,
2013-09-22 04:31:00,69.7,68.2,29.63,WNW,288,5.0,5.0,95,0.29,,,0.08,Wunderground v.1.15,2013-09-22 08:31:00,
2013-09-22 04:36:00,69.6,68.1,29.63,SW,225,5.0,10.0,95,0.41,,,0.17,Wunderground v.1.15,2013-09-22 08:36:00,
2013-09-22 04:42:00,69.2,67.7,29.63,SSW,198,6.0,8.0,95,0.20,,,0.20,Wunderground v.1.15,2013-09-22 08:42:00,
2013-09-22 04:48:00,68.7,66.9,29.63,West,281,6.0,9.0,94,0.10,,,0.21,Wunderground v.1.15,2013-09-22 08:48:00,
2013-09-22 04:54:00,68.2,66.4,29.63,SSW,198,5.0,11.0,94,0.11,,,0.22,Wunderground v.1.15,2013-09-22 08:54:00,
2013-09-22 05:00:00,67.7,66.2,29.62,SW,229,5.0,5.0,95,0.08,,,0.22,Wunderground v.1.15,2013-09-22 09:00:00,
2013-09-22 05:05:00,67.5,66.0,29.62,West,267,3.0,6.0,95,0.05,,,0.22,Wunderground v.1.15,2013-09-22 09:05:00,
2013-09-22 05:11:00,67.5,66.0,29.63,SSW,207,2.0,5.0,95,0.00,,,0.22,Wunderground v.1.15,2013-09-22 09:11:00,
2013-09-22 05:17:00,67.4,65.9,29.63,SW,235,2.0,6.0,95,0.00,,,0.23,Wunderground v.1.15,2013-09-22 09:17:00,
2013-09-22 05:22:00,67.3,66.1,29.64,WSW,248,1.0,6.0,96,0.32,,,0.25,Wunderground v.1.15,2013-09-22 09:22:00,
2013-09-22 05:28:00,67.3,66.1,29.65,WNW,292,4.0,9.0,96,0.63,,,0.30,Wunderground v.1.15,2013-09-22 09:28:00,
2013-09-22 05:33:00,67.3,66.1,29.65,South,189,6.0,16.0,96,0.34,,,0.35,Wunderground v.1.15,2013-09-22 09:33:00,
2013-09-22 05:38:00,67.2,66.0,29.64,SSW,203,7.0,16.0,96,0.46,,,0.39,Wunderground v.1.15,2013-09-22 09:38:00,
2013-09-22 05:43:00,67.1,65.9,29.64,SSW,201,4.0,6.0,96,0.14,,,0.40,Wunderground v.1.15,2013-09-22 09:43:00,
2013-09-22 05:48:00,66.9,65.7,29.64,SW,236,3.0,6.0,96,0.12,,,0.41,Wunderground v.1.15,2013-09-22 09:48:00,
2013-09-22 05:53:00,66.9,65.7,29.64,SSW,195,4.0,6.0,96,0.10,,,0.42,Wunderground v.1.15,2013-09-22 09:53:00,
2013-09-22 05:58:00,66.7,65.5,29.64,WSW,244,3.0,6.0,96,0.08,,,0.42,Wunderground v.1.15,2013-09-22 09:58:00,
2013-09-22 06:04:00,66.5,65.3,29.64,SSW,193,1.0,6.0,96,0.14,,,0.44,Wunderground v.1.15,2013-09-22 10:04:00,
2013-09-22 06:10:00,66.3,64.8,29.64,WSW,254,1.0,6.0,95,0.10,,,0.45,Wunderground v.1.15,2013-09-22 10:10:00,
2013-09-22 06:15:00,66.1,64.9,29.64,WSW,250,1.0,6.0,96,0.08,,,0.45,Wunderground v.1.15,2013-09-22 10:15:00,
2013-09-22 06:21:00,66.0,64.8,29.64,SE,145,1.0,6.0,96,0.06,,,0.46,Wunderground v.1.15,2013-09-22 10:21:00,
2013-09-22 06:27:00,66.0,64.8,29.64,SSW,198,1.0,6.0,96,0.06,,,0.46,Wunderground v.1.15,2013-09-22 10:27:00,
2013-09-22 06:33:00,65.9,64.7,29.65,SW,229,0.0,6.0,96,0.04,,,0.47,Wunderground v.1.15,2013-09-22 10:33:00,
2013-09-22 06:39:00,65.9,64.7,29.65,SW,221,0.0,6.0,96,0.04,,,0.47,Wunderground v.1.15,2013-09-22 10:39:00,
2013-09-22 06:44:00,65.8,64.6,29.65,SW,221,0.0,6.0,96,0.05,,,0.48,Wunderground v.1.15,2013-09-22 10:44:00,
2013-09-22 06:50:00,65.7,64.5,29.65,SW,217,0.0,6.0,96,0.05,,,0.48,Wunderground v.1.15,2013-09-22 10:50:00,
2013-09-22 06:56:00,65.7,64.5,29.65,SW,225,0.0,6.0,96,0.05,,,0.48,Wunderground v.1.15,2013-09-22 10:56:00,
2013-09-22 07:02:00,65.6,64.4,29.65,WSW,248,0.0,6.0,96,0.04,,,0.49,Wunderground v.1.15,2013-09-22 11:02:00,
2013-09-22 07:08:00,65.6,64.7,29.65,WSW,243,0.0,6.0,97,0.09,,,0.50,Wunderground v.1.15,2013-09-22 11:08:00,
2013-09-22 07:14:00,65.5,64.6,29.66,West,271,0.0,6.0,97,0.11,,,0.51,Wunderground v.1.15,2013-09-22 11:14:00,
2013-09-22 07:20:00,65.4,64.5,29.66,NNW,335,0.0,6.0,97,0.12,,,0.52,Wunderground v.1.15,2013-09-22 11:20:00,
2013-09-22 07:26:00,65.1,63.9,29.66,North,4,0.0,6.0,96,0.06,,,0.53,Wunderground v.1.15,2013-09-22 11:26:00,
2013-09-22 07:32:00,64.9,63.7,29.65,North,6,0.0,6.0,96,0.06,,,0.53,Wunderground v.1.15,2013-09-22 11:32:00,
2013-09-22 07:38:00,64.6,63.4,29.66,North,356,0.0,6.0,96,0.06,,,0.54,Wunderground v.1.15,2013-09-22 11:38:00,
2013-09-22 07:44:00,64.5,63.3,29.66,NNW,341,1.0,6.0,96,0.06,,,0.54,Wunderground v.1.15,2013-09-22 11:44:00,
2013-09-22 07:50:00,64.2,63.0,29.66,NE,39,1.0,6.0,96,0.04,,,0.54,Wunderground v.1.15,2013-09-22 11:50:00,
2013-09-22 07:56:00,64.0,62.8,29.66,North,354,1.0,6.0,96,0.00,,,0.54,Wunderground v.1.15,2013-09-22 11:56:00,
2013-09-22 08:01:00,63.8,62.6,29.66,NE,36,1.0,6.0,96,0.00,,,0.54,Wunderground v.1.15,2013-09-22 12:01:00,
2013-09-22 08:07:00,63.6,62.4,29.66,East,91,2.0,6.0,96,0.00,,,0.54,Wunderground v.1.15,2013-09-22 12:07:00,
2013-09-22 08:13:00,63.6,62.4,29.66,ENE,63,1.0,6.0,96,0.00,,,0.54,Wunderground v.1.15,2013-09-22 12:13:00,
2013-09-22 08:19:00,63.5,62.3,29.66,NNE,29,0.0,6.0,96,0.00,,,0.54,Wunderground v.1.15,2013-09-22 12:19:00,
2013-09-22 08:25:00,63.4,62.2,29.66,NNE,27,1.0,6.0,96,0.00,,,0.54,Wunderground v.1.15,2013-09-22 12:25:00,
2013-09-22 08:31:00,63.3,62.1,29.67,NNE,33,1.0,6.0,96,0.00,,,0.54,Wunderground v.1.15,2013-09-22 12:31:00,
2013-09-22 08:37:00,63.2,62.0,29.67,NNW,335,1.0,6.0,96,0.00,,,0.54,Wunderground v.1.15,2013-09-22 12:37:00,
2013-09-22 08:43:00,63.0,61.8,29.67,NE,36,0.0,6.0,96,0.00,,,0.54,Wunderground v.1.15,2013-09-22 12:43:00,
2013-09-22 08:49:00,63.0,61.8,29.67,North,356,1.0,6.0,96,0.00,,,0.54,Wunderground v.1.15,2013-09-22 12:49:00,
2013-09-22 08:55:00,63.0,61.8,29.67,NNE,18,1.0,6.0,96,0.00,,,0.54,Wunderground v.1.15,2013-09-22 12:55:00,
2013-09-22 09:00:00,62.9,61.7,29.67,NNW,335,1.0,1.0,96,0.00,,,0.55,Wunderground v.1.15,2013-09-22 13:00:00,
2013-09-22 09:05:00,62.9,61.7,29.67,NW,316,1.0,6.0,96,0.00,,,0.55,Wunderground v.1.15,2013-09-22 13:05:00,
2013-09-22 09:11:00,62.9,61.7,29.67,West,273,0.0,6.0,96,0.00,,,0.55,Wunderground v.1.15,2013-09-22 13:11:00,
2013-09-22 09:17:00,63.0,61.8,29.67,North,354,0.0,6.0,96,0.00,,,0.55,Wunderground v.1.15,2013-09-22 13:17:00,
2013-09-22 09:23:00,63.0,61.5,29.67,North,352,1.0,6.0,95,0.00,,,0.55,Wunderground v.1.15,2013-09-22 13:23:00,
2013-09-22 09:29:00,63.0,61.5,29.67,East,94,1.0,6.0,95,0.00,,,0.55,Wunderground v.1.15,2013-09-22 13:29:00,
2013-09-22 09:35:00,63.0,61.5,29.68,North,354,0.0,6.0,95,0.00,,,0.55,Wunderground v.1.15,2013-09-22 13:35:00,
2013-09-22 09:41:00,63.0,61.5,29.68,North,6,0.0,6.0,95,0.00,,,0.55,Wunderground v.1.15,2013-09-22 13:41:00,
2013-09-22 09:47:00,62.8,61.0,29.68,West,270,1.0,6.0,94,0.00,,,0.55,Wunderground v.1.15,2013-09-22 13:47:00,
2013-09-22 09:53:00,62.8,61.3,29.68,NNE,15,2.0,6.0,95,0.00,,,0.55,Wunderground v.1.15,2013-09-22 13:53:00,
2013-09-22 09:59:00,63.1,61.6,29.68,NW,316,1.0,6.0,95,0.00,,,0.55,Wunderground v.1.15,2013-09-22 13:59:00,
2013-09-22 10:05:00,63.7,62.2,29.68,NE,43,1.0,6.0,95,0.00,,,0.55,Wunderground v.1.15,2013-09-22 14:05:00,
2013-09-22 10:10:00,63.7,61.9,29.68,North,356,1.0,6.0,94,0.00,,,0.55,Wunderground v.1.15,2013-09-22 14:10:00,
2013-09-22 10:16:00,64.1,62.3,29.68,NNE,27,1.0,6.0,94,0.00,,,0.55,Wunderground v.1.15,2013-09-22 14:16:00,
2013-09-22 10:21:00,64.3,62.5,29.68,WNW,297,0.0,6.0,94,0.00,,,0.55,Wunderground v.1.15,2013-09-22 14:21:00,
2013-09-22 10:26:00,64.5,62.4,29.68,NNE,24,1.0,6.0,93,0.00,,,0.55,Wunderground v.1.15,2013-09-22 14:26:00,
2013-09-22 10:32:00,65.0,63.2,29.68,NW,322,1.0,6.0,94,0.00,,,0.55,Wunderground v.1.15,2013-09-22 14:32:00,
2013-09-22 10:37:00,65.1,63.0,29.68,NE,39,1.0,6.0,93,0.00,,,0.55,Wunderground v.1.15,2013-09-22 14:37:00,
2013-09-22 10:43:00,65.4,63.3,29.68,WNW,285,0.0,6.0,93,0.00,,,0.55,Wunderground v.1.15,2013-09-22 14:43:00,
2013-09-22 10:48:00,65.4,63.0,29.68,WSW,246,0.0,6.0,92,0.00,,,0.55,Wunderground v.1.15,2013-09-22 14:48:00,
2013-09-22 10:54:00,66.0,63.6,29.68,ENE,68,0.0,6.0,92,0.00,,,0.55,Wunderground v.1.15,2013-09-22 14:54:00,
2013-09-22 11:00:00,66.6,64.2,29.68,North,4,0.0,6.0,92,0.00,,,0.55,Wunderground v.1.15,2013-09-22 15:00:00,
2013-09-22 11:05:00,66.7,64.0,29.68,North,1,1.0,6.0,91,0.00,,,0.55,Wunderground v.1.15,2013-09-22 15:05:00,
2013-09-22 11:11:00,65.4,61.8,29.69,NE,45,3.0,6.0,88,0.00,,,0.55,Wunderground v.1.15,2013-09-22 15:11:00,
2013-09-22 11:17:00,64.6,60.6,29.68,NNW,347,3.0,6.0,87,0.00,,,0.55,Wunderground v.1.15,2013-09-22 15:17:00,
2013-09-22 11:23:00,64.2,60.6,29.68,North,356,2.0,2.0,88,0.00,,,0.55,Wunderground v.1.15,2013-09-22 15:23:00,
2013-09-22 11:29:00,64.2,60.6,29.68,NNW,332,1.0,3.0,88,0.00,,,0.55,Wunderground v.1.15,2013-09-22 15:29:00,
2013-09-22 11:35:00,64.3,60.3,29.68,North,7,1.0,2.0,87,0.00,,,0.55,Wunderground v.1.15,2013-09-22 15:35:00,
2013-09-22 11:41:00,64.3,60.3,29.69,WSW,252,1.0,3.0,87,0.00,,,0.55,Wunderground v.1.15,2013-09-22 15:41:00,
2013-09-22 11:47:00,64.4,60.4,29.69,North,349,1.0,3.0,87,0.00,,,0.55,Wunderground v.1.15,2013-09-22 15:47:00,
2013-09-22 11:52:00,64.9,60.9,29.68,North,360,1.0,2.0,87,0.00,,,0.55,Wunderground v.1.15,2013-09-22 15:52:00,
2013-09-22 11:58:00,66.0,62.7,29.68,NNE,26,1.0,2.0,89,0.00,,,0.55,Wunderground v.1.15,2013-09-22 15:58:00,
2013-09-22 12:05:00,66.4,59.3,29.68,WNW,303,2.0,8.0,78,0.00,,,0.55,Wunderground v.1.15,2013-09-22 16:05:00,
2013-09-22 12:11:00,66.8,60.1,29.68,West,266,3.0,4.0,79,0.00,,,0.55,Wunderground v.1.15,2013-09-22 16:11:00,
2013-09-22 12:16:00,67.6,60.5,29.68,SW,232,2.0,4.0,78,0.00,,,0.55,Wunderground v.1.15,2013-09-22 16:16:00,
2013-09-22 12:22:00,68.3,61.2,29.67,NW,322,2.0,3.0,78,0.00,,,0.55,Wunderground v.1.15,2013-09-22 16:22:00,
2013-09-22 12:28:00,68.7,59.3,29.68,NNW,343,2.0,5.0,72,0.00,,,0.55,Wunderground v.1.15,2013-09-22 16:28:00,
2013-09-22 12:34:00,68.7,58.9,29.68,West,261,3.0,3.0,71,0.00,,,0.55,Wunderground v.1.15,2013-09-22 16:34:00,
2013-09-22 12:40:00,69.2,59.4,29.68,SSW,207,3.0,3.0,71,0.00,,,0.55,Wunderground v.1.15,2013-09-22 16:40:00,
2013-09-22 12:46:00,69.8,60.0,29.67,WNW,288,2.0,4.0,71,0.00,,,0.55,Wunderground v.1.15,2013-09-22 16:46:00,
2013-09-22 12:52:00,69.7,59.1,29.67,NE,39,3.0,5.0,69,0.00,,,0.55,Wunderground v.1.15,2013-09-22 16:52:00,
2013-09-22 12:58:00,69.8,58.8,29.67,NNE,13,3.0,6.0,68,0.00,,,0.55,Wunderground v.1.15,2013-09-22 16:58:00,
2013-09-22 13:04:00,70.3,59.6,29.67,North,11,2.0,4.0,69,0.00,,,0.55,Wunderground v.1.15,2013-09-22 17:04:00,
2013-09-22 13:09:00,70.4,59.3,29.67,West,271,2.0,6.0,68,0.00,,,0.55,Wunderground v.1.15,2013-09-22 17:09:00,
2013-09-22 13:15:00,70.6,59.5,29.66,WNW,300,2.0,5.0,68,0.00,,,0.55,Wunderground v.1.15,2013-09-22 17:15:00,
2013-09-22 13:21:00,70.7,59.6,29.66,NE,41,3.0,3.0,68,0.00,,,0.55,Wunderground v.1.15,2013-09-22 17:21:00,
2013-09-22 13:27:00,70.5,59.8,29.66,ESE,103,3.0,4.0,69,0.00,,,0.55,Wunderground v.1.15,2013-09-22 17:27:00,
2013-09-22 13:32:00,70.7,60.0,29.66,NNE,16,2.0,2.0,69,0.00,,,0.55,Wunderground v.1.15,2013-09-22 17:32:00,
2013-09-22 13:37:00,70.8,60.1,29.66,WNW,302,2.0,4.0,69,0.00,,,0.55,Wunderground v.1.15,2013-09-22 17:37:00,
2013-09-22 13:43:00,71.4,60.7,29.66,NE,47,2.0,4.0,69,0.00,,,0.55,Wunderground v.1.15,2013-09-22 17:43:00,
2013-09-22 13:49:00,70.3,58.8,29.66,NNW,330,4.0,6.0,67,0.00,,,0.55,Wunderground v.1.15,2013-09-22 17:49:00,
2013-09-22 13:55:00,70.8,60.1,29.66,WSW,243,3.0,4.0,69,0.00,,,0.55,Wunderground v.1.15,2013-09-22 17:55:00,
2013-09-22 14:01:00,71.7,60.6,29.66,WNW,284,2.0,4.0,68,0.00,,,0.55,Wunderground v.1.15,2013-09-22 18:01:00,
2013-09-22 23:32:00,47.6,46.0,29.83,NNE,33,0.0,0.0,94,0.00,,,0.55,Wunderground v.1.15,2013-09-23 03:32:00,
2013-09-22 23:38:00,47.7,46.1,29.83,North,352,1.0,1.0,94,0.00,,,0.55,Wunderground v.1.15,2013-09-23 03:38:00,
2013-09-22 23:44:00,47.6,45.7,29.83,North,351,0.0,0.0,93,0.00,,,0.55,Wunderground v.1.15,2013-09-23 03:44:00,
2013-09-22 23:50:00,47.1,45.2,29.83,NE,41,0.0,1.0,93,0.00,,,0.55,Wunderground v.1.15,2013-09-23 03:50:00,
2013-09-22 23:55:00,47.1,45.5,29.83,NE,41,0.0,1.0,94,0.00,,,0.55,Wunderground v.1.15,2013-09-23 03:55:00,